Time;durP1;ratioP1;P1;durP2;ratioP2;P2;SDS_P1;SDS_P2;PMS_P1;PMS_P2;Temp;Humidity;BMP_temperature;BMP_pressure;BME280_temperature;BME280_humidity;BME280_pressure;Samples;Min_cycle;Max_cycle;Signal;HPM_P1;HPM_P2
2023/02/24 00:01:27;0.00;0.00;0.62;0.00;0.00;0.62;2.00;1.60;;;22.90;25.90;;;;;;2259348;61;20431;-66
2023/02/24 00:03:57;0.00;0.00;0.62;0.00;0.00;0.62;1.90;1.13;;;22.90;25.90;;;;;;2249582;61;20393;-64
2023/02/24 00:06:24;0.00;0.00;0.62;0.00;0.00;0.62;1.90;1.30;;;22.90;25.90;;;;;;2256336;61;20453;-63
2023/02/24 00:08:52;0.00;0.00;0.62;0.00;0.00;0.62;2.40;1.33;;;22.90;26.00;;;;;;2248037;61;20370;-65
2023/02/24 00:11:19;0.00;0.00;0.62;0.00;0.00;0.62;1.80;1.10;;;22.90;25.90;;;;;;2259111;61;20358;-61
2023/02/24 00:13:46;0.00;0.00;0.62;0.00;0.00;0.62;2.77;1.53;;;22.90;26.00;;;;;;2259959;61;20454;-64
2023/02/24 00:16:18;0.00;0.00;0.62;0.00;0.00;0.62;3.20;1.53;;;22.80;25.90;;;;;;2251884;61;20873;-63
2023/02/24 00:18:44;0.00;0.00;0.62;0.00;0.00;0.62;1.60;1.03;;;22.90;25.90;;;;;;2260449;61;20866;-64
2023/02/24 00:21:15;0.00;0.00;0.62;0.00;0.00;0.62;1.70;1.00;;;22.90;26.20;;;;;;2259764;61;20783;-65
2023/02/24 00:23:43;0.00;0.00;0.62;0.00;0.00;0.62;1.77;1.20;;;22.90;25.90;;;;;;2259244;61;20393;-64
2023/02/24 00:26:12;0.00;0.00;0.62;0.00;0.00;0.62;2.37;1.40;;;22.90;25.90;;;;;;2256430;61;20833;-64
2023/02/24 00:28:40;0.00;0.00;0.62;0.00;0.00;0.62;2.53;1.63;;;22.80;25.90;;;;;;2256402;61;20376;-63
2023/02/24 00:31:10;0.00;0.00;0.62;0.00;0.00;0.62;2.00;1.30;;;22.90;25.90;;;;;;2254918;61;20503;-65
2023/02/24 00:33:38;0.00;0.00;0.62;0.00;0.00;0.62;1.93;1.27;;;22.80;25.80;;;;;;2259790;61;20484;-64
2023/02/24 00:36:07;0.00;0.00;0.62;0.00;0.00;0.62;2.20;1.50;;;22.80;25.80;;;;;;2259422;61;20369;-63
2023/02/24 00:38:38;0.00;0.00;0.62;0.00;0.00;0.62;1.97;1.30;;;22.90;25.90;;;;;;2259500;61;20366;-63
2023/02/24 00:41:11;0.00;0.00;0.62;0.00;0.00;0.62;2.03;1.13;;;22.90;25.90;;;;;;2249044;61;20806;-65
2023/02/24 00:43:38;0.00;0.00;0.62;0.00;0.00;0.62;2.73;1.97;;;22.80;25.90;;;;;;2249418;61;21782;-62
2023/02/24 00:46:10;0.00;0.00;0.62;0.00;0.00;0.62;2.37;1.50;;;22.90;25.90;;;;;;2248650;61;20427;-63
2023/02/24 00:48:39;0.00;0.00;0.62;0.00;0.00;0.62;2.07;1.37;;;22.80;25.90;;;;;;2255967;61;20370;-65
2023/02/24 00:51:09;0.00;0.00;0.62;0.00;0.00;0.62;2.13;1.27;;;22.80;25.80;;;;;;2252679;61;20397;-62
2023/02/24 00:53:37;0.00;0.00;0.62;0.00;0.00;0.62;2.70;1.40;;;22.80;25.80;;;;;;2259237;61;20386;-64
2023/02/24 00:56:06;0.00;0.00;0.62;0.00;0.00;0.62;1.70;1.10;;;22.80;25.80;;;;;;2260063;61;20362;-66
2023/02/24 00:58:33;0.00;0.00;0.62;0.00;0.00;0.62;1.60;1.00;;;22.80;25.80;;;;;;2260072;61;20369;-66
2023/02/24 01:01:01;0.00;0.00;0.62;0.00;0.00;0.62;2.00;1.00;;;22.80;25.90;;;;;;2247999;61;20385;-68
2023/02/24 01:03:28;0.00;0.00;0.62;0.00;0.00;0.62;2.03;1.43;;;22.80;25.90;;;;;;2258913;61;20940;-64
2023/02/24 01:05:55;0.00;0.00;0.62;0.00;0.00;0.62;2.00;1.23;;;22.80;25.80;;;;;;2256366;61;20418;-65
2023/02/24 01:08:22;0.00;0.00;0.62;0.00;0.00;0.62;2.17;1.30;;;22.80;25.80;;;;;;2252437;61;20425;-64
2023/02/24 01:13:43;0.00;0.00;0.62;0.00;0.00;0.62;1.90;1.10;;;22.80;25.80;;;;;;2259620;61;20386;-65
2023/02/24 01:16:13;0.00;0.00;0.62;0.00;0.00;0.62;2.00;1.10;;;22.80;25.80;;;;;;2248204;61;20393;-64
2023/02/24 01:18:40;0.00;0.00;0.62;0.00;0.00;0.62;1.50;0.90;;;22.80;25.80;;;;;;2249841;61;20464;-65
2023/02/24 01:21:07;0.00;0.00;0.62;0.00;0.00;0.62;2.00;1.30;;;22.80;25.80;;;;;;2256154;61;20432;-65
2023/02/24 01:23:34;0.00;0.00;0.62;0.00;0.00;0.62;1.70;1.00;;;22.80;25.80;;;;;;2248065;61;20386;-63
2023/02/24 01:26:04;0.00;0.00;0.62;0.00;0.00;0.62;1.50;1.10;;;22.80;25.80;;;;;;2252578;61;20419;-63
2023/02/24 01:28:30;0.00;0.00;0.62;0.00;0.00;0.62;2.00;1.20;;;22.80;25.80;;;;;;2249190;61;20476;-65
2023/02/24 01:31:01;0.00;0.00;0.62;0.00;0.00;0.62;4.60;1.70;;;22.80;25.80;;;;;;2255228;61;20364;-65
2023/02/24 01:33:28;0.00;0.00;0.62;0.00;0.00;0.62;2.80;1.10;;;22.70;25.80;;;;;;2252311;61;20480;-63
2023/02/24 01:35:55;0.00;0.00;0.62;0.00;0.00;0.62;2.70;1.20;;;22.80;25.80;;;;;;2256253;61;20370;-64
2023/02/24 01:38:24;0.00;0.00;0.62;0.00;0.00;0.62;2.23;1.00;;;22.80;25.80;;;;;;2259179;61;20365;-63
2023/02/24 01:40:58;0.00;0.00;0.62;0.00;0.00;0.62;2.23;1.10;;;22.80;25.80;;;;;;2259745;61;20381;-62
2023/02/24 01:43:26;0.00;0.00;0.62;0.00;0.00;0.62;2.57;1.30;;;22.80;25.80;;;;;;2259771;61;20389;-64
2023/02/24 01:45:53;0.00;0.00;0.62;0.00;0.00;0.62;1.63;0.90;;;22.70;25.70;;;;;;2245391;61;20374;-62
2023/02/24 01:48:20;0.00;0.00;0.62;0.00;0.00;0.62;1.47;0.90;;;22.70;25.80;;;;;;2256097;61;20357;-64
2023/02/24 01:50:51;0.00;0.00;0.62;0.00;0.00;0.62;1.50;1.00;;;22.70;25.70;;;;;;2249138;61;20507;-65
2023/02/24 01:53:18;0.00;0.00;0.62;0.00;0.00;0.62;2.30;1.23;;;22.70;25.70;;;;;;2255187;61;20393;-65
2023/02/24 01:55:49;0.00;0.00;0.62;0.00;0.00;0.62;1.90;0.93;;;22.70;25.70;;;;;;2249209;61;20824;-64
2023/02/24 01:58:25;0.00;0.00;0.62;0.00;0.00;0.62;1.90;1.13;;;22.70;25.70;;;;;;2248793;61;20378;-65
2023/02/24 02:00:56;0.00;0.00;0.62;0.00;0.00;0.62;3.10;1.20;;;22.70;25.70;;;;;;2257018;61;20393;-64
2023/02/24 02:03:30;0.00;0.00;0.62;0.00;0.00;0.62;3.00;1.13;;;22.70;25.70;;;;;;2255990;61;20480;-64
2023/02/24 02:06:01;0.00;0.00;0.62;0.00;0.00;0.62;2.03;1.10;;;22.70;25.70;;;;;;2255216;61;20775;-65
2023/02/24 02:08:28;0.00;0.00;0.62;0.00;0.00;0.62;1.60;0.90;;;22.70;25.70;;;;;;2257866;61;20380;-62
2023/02/24 02:11:01;0.00;0.00;0.62;0.00;0.00;0.62;1.97;1.27;;;22.70;25.70;;;;;;2255785;61;20386;-64
2023/02/24 02:13:29;0.00;0.00;0.62;0.00;0.00;0.62;1.93;1.10;;;22.70;25.70;;;;;;2251448;61;20719;-64
2023/02/24 02:16:15;0.00;0.00;0.62;0.00;0.00;0.62;1.83;1.00;;;22.70;25.70;;;;;;2245702;61;20883;-64
2023/02/24 02:18:55;0.00;0.00;0.62;0.00;0.00;0.62;2.07;0.87;;;22.70;25.70;;;;;;2255913;61;20372;-65
2023/02/24 02:22:05;0.00;0.00;0.62;0.00;0.00;0.62;1.40;0.90;;;22.70;25.70;;;;;;2255108;61;20373;-65
2023/02/24 02:24:53;0.00;0.00;0.62;0.00;0.00;0.62;2.43;1.23;;;22.70;25.70;;;;;;2255478;61;20368;-65
2023/02/24 02:28:05;0.00;0.00;0.62;0.00;0.00;0.62;2.17;1.20;;;22.70;25.70;;;;;;2259485;61;20401;-63
2023/02/24 02:31:17;0.00;0.00;0.62;0.00;0.00;0.62;1.50;0.93;;;22.70;25.70;;;;;;2259632;61;20362;-65
2023/02/24 02:34:24;0.00;0.00;0.62;0.00;0.00;0.62;1.50;0.93;;;22.70;25.70;;;;;;2248975;61;21017;-63
2023/02/24 02:37:02;0.00;0.00;0.62;0.00;0.00;0.62;1.80;1.00;;;22.60;25.70;;;;;;2254351;61;20369;-62
2023/02/24 02:39:42;0.00;0.00;0.62;0.00;0.00;0.62;1.70;0.90;;;22.60;25.70;;;;;;2255991;61;20373;-64
2023/02/24 02:42:23;0.00;0.00;0.62;0.00;0.00;0.62;2.03;1.00;;;22.60;25.70;;;;;;2258657;61;20390;-62
2023/02/24 02:44:57;0.00;0.00;0.62;0.00;0.00;0.62;1.50;0.90;;;22.60;25.70;;;;;;2255378;61;20873;-64
2023/02/24 02:47:31;0.00;0.00;0.62;0.00;0.00;0.62;2.23;1.00;;;22.60;25.70;;;;;;2257474;61;20365;-63
2023/02/24 02:50:07;0.00;0.00;0.62;0.00;0.00;0.62;1.60;0.80;;;22.60;25.70;;;;;;2255654;61;20411;-65
2023/02/24 02:52:41;0.00;0.00;0.62;0.00;0.00;0.62;1.60;0.90;;;22.60;25.70;;;;;;2245523;61;20486;-63
2023/02/24 02:55:14;0.00;0.00;0.62;0.00;0.00;0.62;1.67;1.00;;;22.60;25.70;;;;;;2260478;61;20896;-63
2023/02/24 02:57:46;0.00;0.00;0.62;0.00;0.00;0.62;1.80;1.07;;;22.60;25.70;;;;;;2259510;61;20363;-61
2023/02/24 03:00:22;0.00;0.00;0.62;0.00;0.00;0.62;3.10;1.00;;;22.60;25.70;;;;;;2249381;61;20370;-64
2023/02/24 03:02:54;0.00;0.00;0.62;0.00;0.00;0.62;2.10;1.10;;;22.60;25.70;;;;;;2252747;61;20389;-63
2023/02/24 03:05:28;0.00;0.00;0.62;0.00;0.00;0.62;2.33;1.30;;;22.60;25.70;;;;;;2248618;61;20767;-63
2023/02/24 03:07:59;0.00;0.00;0.62;0.00;0.00;0.62;2.30;1.17;;;22.60;25.70;;;;;;2249423;61;20898;-63
2023/02/24 03:10:31;0.00;0.00;0.62;0.00;0.00;0.62;2.63;1.07;;;22.60;25.70;;;;;;2249274;61;20476;-63
2023/02/24 03:13:00;0.00;0.00;0.62;0.00;0.00;0.62;1.70;0.90;;;22.60;25.70;;;;;;2248733;61;20848;-64
2023/02/24 03:15:31;0.00;0.00;0.62;0.00;0.00;0.62;1.60;0.80;;;22.60;25.60;;;;;;2256529;61;20381;-65
2023/02/24 03:18:09;0.00;0.00;0.62;0.00;0.00;0.62;1.50;1.07;;;22.60;25.70;;;;;;2260383;61;20370;-63
2023/02/24 03:20:42;0.00;0.00;0.62;0.00;0.00;0.62;2.43;1.07;;;22.60;25.70;;;;;;2248325;61;20866;-63
2023/02/24 03:23:15;0.00;0.00;0.62;0.00;0.00;0.62;1.80;1.00;;;22.60;26.10;;;;;;2246412;61;20509;-65
2023/02/24 03:25:53;0.00;0.00;0.62;0.00;0.00;0.62;1.80;0.90;;;22.60;25.60;;;;;;2249377;61;20796;-63
2023/02/24 03:28:29;0.00;0.00;0.62;0.00;0.00;0.62;1.73;0.90;;;22.60;25.60;;;;;;2255517;61;20384;-62
2023/02/24 03:31:02;0.00;0.00;0.62;0.00;0.00;0.62;1.77;0.90;;;22.60;25.60;;;;;;2253786;61;20365;-62
2023/02/24 03:33:35;0.00;0.00;0.62;0.00;0.00;0.62;1.60;0.90;;;22.60;25.60;;;;;;2249461;61;20821;-62
2023/02/24 03:36:04;0.00;0.00;0.62;0.00;0.00;0.62;1.60;0.90;;;22.60;25.60;;;;;;2251935;61;20442;-63
2023/02/24 03:38:36;0.00;0.00;0.62;0.00;0.00;0.62;1.90;0.90;;;22.60;25.60;;;;;;2256835;61;20626;-63
2023/02/24 03:41:09;0.00;0.00;0.62;0.00;0.00;0.62;1.40;0.97;;;22.50;25.50;;;;;;2249145;61;20393;-61
2023/02/24 03:43:41;0.00;0.00;0.62;0.00;0.00;0.62;1.57;0.80;;;22.50;25.50;;;;;;2255603;61;20382;-62
2023/02/24 03:46:08;0.00;0.00;0.62;0.00;0.00;0.62;1.63;0.80;;;22.50;25.50;;;;;;2260337;61;20874;-63
2023/02/24 03:48:42;0.00;0.00;0.62;0.00;0.00;0.62;1.67;0.90;;;22.50;25.50;;;;;;2249400;61;20377;-63
2023/02/24 03:51:15;0.00;0.00;0.62;0.00;0.00;0.62;2.00;1.10;;;22.50;25.50;;;;;;2248400;61;20357;-63
2023/02/24 03:54:01;0.00;0.00;0.62;0.00;0.00;0.62;1.80;0.97;;;22.50;25.50;;;;;;2249213;61;20936;-61
2023/02/24 03:56:44;0.00;0.00;0.62;0.00;0.00;0.62;1.60;1.00;;;22.50;25.50;;;;;;2253125;61;20708;-62
2023/02/24 03:59:24;0.00;0.00;0.62;0.00;0.00;0.62;1.93;0.73;;;22.50;25.50;;;;;;2249052;61;20365;-61
2023/02/24 04:02:01;0.00;0.00;0.62;0.00;0.00;0.62;2.00;1.00;;;22.50;25.50;;;;;;2249367;61;20398;-62
2023/02/24 04:04:40;0.00;0.00;0.62;0.00;0.00;0.62;1.60;0.80;;;22.50;25.50;;;;;;2255241;61;20419;-64
2023/02/24 04:07:42;0.00;0.00;0.62;0.00;0.00;0.62;1.70;0.90;;;22.50;25.50;;;;;;2257226;61;20388;-63
2023/02/24 04:10:36;0.00;0.00;0.62;0.00;0.00;0.62;1.93;1.00;;;22.50;25.50;;;;;;2257008;61;20369;-62
2023/02/24 04:13:34;0.00;0.00;0.62;0.00;0.00;0.62;1.40;0.80;;;22.50;25.50;;;;;;2256455;61;20393;-62
2023/02/24 04:16:28;0.00;0.00;0.62;0.00;0.00;0.62;1.70;0.97;;;22.50;25.50;;;;;;2257390;61;20365;-64
2023/02/24 04:19:20;0.00;0.00;0.62;0.00;0.00;0.62;1.40;0.70;;;22.40;25.40;;;;;;2256135;61;21208;-63
2023/02/24 04:22:10;0.00;0.00;0.62;0.00;0.00;0.62;2.00;0.73;;;22.40;25.50;;;;;;2256985;61;20524;-62
2023/02/24 04:25:00;0.00;0.00;0.62;0.00;0.00;0.62;1.67;0.90;;;22.40;25.50;;;;;;2257242;61;20394;-62
2023/02/24 04:27:48;0.00;0.00;0.62;0.00;0.00;0.62;1.70;0.77;;;22.40;25.40;;;;;;2256516;61;20408;-64
2023/02/24 04:30:41;0.00;0.00;0.62;0.00;0.00;0.62;1.50;0.90;;;22.40;25.50;;;;;;2254169;61;20427;-62
2023/02/24 04:33:26;0.00;0.00;0.62;0.00;0.00;0.62;1.33;0.80;;;22.40;26.00;;;;;;2257133;61;20389;-64
2023/02/24 04:36:11;0.00;0.00;0.62;0.00;0.00;0.62;1.70;0.90;;;22.40;25.50;;;;;;2257182;61;20360;-63
2023/02/24 04:38:57;0.00;0.00;0.62;0.00;0.00;0.62;1.30;0.70;;;22.40;25.50;;;;;;2257250;61;20958;-63
2023/02/24 04:41:44;0.00;0.00;0.62;0.00;0.00;0.62;2.13;0.70;;;22.40;25.40;;;;;;2259464;61;20389;-62
2023/02/24 04:44:30;0.00;0.00;0.62;0.00;0.00;0.62;1.30;0.63;;;22.40;25.50;;;;;;2260381;61;20404;-64
2023/02/24 04:47:15;0.00;0.00;0.62;0.00;0.00;0.62;1.60;0.90;;;22.40;25.40;;;;;;2260427;61;20639;-63
2023/02/24 04:50:00;0.00;0.00;0.62;0.00;0.00;0.62;1.83;0.77;;;22.40;25.40;;;;;;2258726;61;20364;-63
2023/02/24 04:52:48;0.00;0.00;0.62;0.00;0.00;0.62;1.87;0.90;;;22.40;25.40;;;;;;2260283;61;20399;-63
2023/02/24 04:55:38;0.00;0.00;0.62;0.00;0.00;0.62;1.60;0.70;;;22.40;25.40;;;;;;2260287;61;20365;-67
2023/02/24 04:58:27;0.00;0.00;0.62;0.00;0.00;0.62;1.50;0.70;;;22.30;25.40;;;;;;2260378;61;20728;-64
2023/02/24 05:01:12;0.00;0.00;0.62;0.00;0.00;0.62;1.70;0.80;;;22.30;25.40;;;;;;2259988;61;20814;-63
2023/02/24 05:03:58;0.00;0.00;0.62;0.00;0.00;0.62;1.40;0.80;;;22.30;25.40;;;;;;2259239;61;20389;-63
2023/02/24 05:06:43;0.00;0.00;0.62;0.00;0.00;0.62;1.40;0.70;;;22.30;25.30;;;;;;2257036;61;20395;-64
2023/02/24 05:09:29;0.00;0.00;0.62;0.00;0.00;0.62;1.67;1.00;;;22.30;25.40;;;;;;2259996;61;20384;-63
2023/02/24 05:12:13;0.00;0.00;0.62;0.00;0.00;0.62;1.80;0.90;;;22.30;25.40;;;;;;2259379;61;20384;-63
2023/02/24 05:15:00;0.00;0.00;0.62;0.00;0.00;0.62;1.30;0.73;;;22.30;25.40;;;;;;2260031;61;20503;-64
2023/02/24 05:17:44;0.00;0.00;0.62;0.00;0.00;0.62;1.70;0.70;;;22.30;25.40;;;;;;2260435;61;20419;-64
2023/02/24 05:23:35;0.00;0.00;0.62;0.00;0.00;0.62;1.90;1.27;;;22.30;25.40;;;;;;2260119;61;20795;-61
2023/02/24 05:26:25;0.00;0.00;0.62;0.00;0.00;0.62;1.93;0.80;;;22.30;25.30;;;;;;2259221;61;20384;-64
2023/02/24 05:29:11;0.00;0.00;0.62;0.00;0.00;0.62;1.30;0.60;;;22.30;25.40;;;;;;2259988;61;20364;-64
2023/02/24 05:31:58;0.00;0.00;0.62;0.00;0.00;0.62;2.40;0.97;;;22.30;25.40;;;;;;2260049;61;20866;-64
2023/02/24 05:34:43;0.00;0.00;0.62;0.00;0.00;0.62;1.30;0.60;;;22.20;25.30;;;;;;2259414;61;20365;-64
2023/02/24 05:37:28;0.00;0.00;0.62;0.00;0.00;0.62;1.50;0.80;;;22.20;25.80;;;;;;2256960;61;20452;-64
2023/02/24 05:40:13;0.00;0.00;0.62;0.00;0.00;0.62;1.30;0.70;;;22.20;25.30;;;;;;2259918;61;20406;-64
2023/02/24 05:43:03;0.00;0.00;0.62;0.00;0.00;0.62;1.70;0.90;;;22.20;25.30;;;;;;2259830;61;20436;-64
2023/02/24 05:45:48;0.00;0.00;0.62;0.00;0.00;0.62;1.87;0.90;;;22.20;25.30;;;;;;2260140;61;20365;-63
2023/02/24 05:48:34;0.00;0.00;0.62;0.00;0.00;0.62;1.70;0.90;;;22.20;25.30;;;;;;2259415;61;20357;-62
2023/02/24 05:51:18;0.00;0.00;0.62;0.00;0.00;0.62;1.50;0.80;;;22.20;25.30;;;;;;2260040;61;20377;-64
2023/02/24 05:54:06;0.00;0.00;0.62;0.00;0.00;0.62;1.50;0.80;;;22.20;25.30;;;;;;2259912;61;20380;-63
2023/02/24 05:56:51;0.00;0.00;0.62;0.00;0.00;0.62;1.60;0.73;;;22.20;25.30;;;;;;2253470;61;20357;-59
2023/02/24 05:59:37;0.00;0.00;0.62;0.00;0.00;0.62;1.73;0.80;;;22.20;25.30;;;;;;2259677;61;20947;-60
2023/02/24 06:02:26;0.00;0.00;0.62;0.00;0.00;0.62;1.67;0.87;;;22.20;25.30;;;;;;2256977;61;20412;-64
2023/02/24 06:05:24;0.00;0.00;0.62;0.00;0.00;0.62;1.60;0.90;;;22.20;25.20;;;;;;2260279;61;20372;-64
2023/02/24 06:08:12;0.00;0.00;0.62;0.00;0.00;0.62;1.30;0.70;;;22.20;25.30;;;;;;2260431;61;20411;-60
2023/02/24 06:10:41;0.00;0.00;0.62;0.00;0.00;0.62;1.40;0.80;;;22.20;25.30;;;;;;2255164;61;20368;-61
2023/02/24 06:13:07;0.00;0.00;0.62;0.00;0.00;0.62;1.60;1.03;;;22.20;25.20;;;;;;2259971;61;20374;-63
2023/02/24 06:15:34;0.00;0.00;0.62;0.00;0.00;0.62;1.50;0.73;;;22.20;25.20;;;;;;2256309;61;20395;-63
2023/02/24 06:18:00;0.00;0.00;0.62;0.00;0.00;0.62;1.90;0.80;;;22.20;25.20;;;;;;2259248;61;20357;-59
2023/02/24 06:20:31;0.00;0.00;0.62;0.00;0.00;0.62;1.73;1.00;;;22.20;25.20;;;;;;2259835;61;20468;-64
2023/02/24 06:22:58;0.00;0.00;0.62;0.00;0.00;0.62;1.90;0.87;;;22.20;25.20;;;;;;2259878;61;20450;-60
2023/02/24 06:25:28;0.00;0.00;0.62;0.00;0.00;0.62;2.63;1.30;;;22.20;25.20;;;;;;2255385;61;20370;-64
2023/02/24 06:27:55;0.00;0.00;0.62;0.00;0.00;0.62;2.27;0.90;;;22.20;25.20;;;;;;2260317;61;20385;-63
2023/02/24 06:30:23;0.00;0.00;0.62;0.00;0.00;0.62;1.80;1.00;;;22.20;25.20;;;;;;2260375;61;20369;-59
2023/02/24 06:32:50;0.00;0.00;0.62;0.00;0.00;0.62;1.70;1.07;;;22.20;25.10;;;;;;2256285;61;20427;-59
2023/02/24 06:35:17;0.00;0.00;0.62;0.00;0.00;0.62;2.77;1.67;;;22.20;25.10;;;;;;2256741;61;20360;-60
2023/02/24 06:37:46;0.00;0.00;0.62;0.00;0.00;0.62;2.10;1.37;;;22.20;25.10;;;;;;2257090;61;20491;-62
2023/02/24 06:40:19;0.00;0.00;0.62;0.00;0.00;0.62;2.70;1.10;;;22.10;25.10;;;;;;2259472;61;20353;-62
2023/02/24 06:42:46;0.00;0.00;0.62;0.00;0.00;0.62;2.60;1.50;;;22.10;25.10;;;;;;2258919;61;20425;-62
2023/02/24 06:45:13;0.00;0.00;0.62;0.00;0.00;0.62;2.40;1.40;;;22.10;25.00;;;;;;2260871;61;20357;-63
2023/02/24 06:47:41;0.00;0.00;0.62;0.00;0.00;0.62;2.40;1.30;;;22.10;25.10;;;;;;2259988;61;20839;-59
2023/02/24 06:50:09;0.00;0.00;0.62;0.00;0.00;0.62;2.77;1.83;;;22.10;25.00;;;;;;2260254;61;20355;-58
2023/02/24 06:52:36;0.00;0.00;0.62;0.00;0.00;0.62;2.87;1.93;;;22.10;25.10;;;;;;2260792;61;20378;-63
2023/02/24 06:55:05;0.00;0.00;0.62;0.00;0.00;0.62;3.57;2.37;;;22.10;25.10;;;;;;2259854;61;20758;-59
2023/02/24 06:57:34;0.00;0.00;0.62;0.00;0.00;0.62;2.83;1.93;;;22.10;25.00;;;;;;2260639;61;20368;-64
2023/02/24 07:00:15;0.00;0.00;0.62;0.00;0.00;0.62;3.07;2.10;;;22.10;25.00;;;;;;2253237;61;20489;-60
2023/02/24 07:02:42;0.00;0.00;0.62;0.00;0.00;0.62;3.60;2.47;;;22.10;25.00;;;;;;2259500;61;20390;-61
2023/02/24 07:05:13;0.00;0.00;0.62;0.00;0.00;0.62;3.03;2.10;;;22.10;25.00;;;;;;2256843;61;20358;-61
2023/02/24 07:07:44;0.00;0.00;0.62;0.00;0.00;0.62;3.10;2.13;;;22.10;25.00;;;;;;2257102;61;20889;-59
2023/02/24 07:10:12;0.00;0.00;0.62;0.00;0.00;0.62;3.70;2.50;;;22.10;25.00;;;;;;2259307;61;20354;-59
2023/02/24 07:12:40;0.00;0.00;0.62;0.00;0.00;0.62;4.90;3.00;;;22.10;25.00;;;;;;2260435;61;21053;-62
2023/02/24 07:15:07;0.00;0.00;0.62;0.00;0.00;0.62;2.77;1.97;;;22.10;25.00;;;;;;2260562;61;20853;-62
2023/02/24 07:17:35;0.00;0.00;0.62;0.00;0.00;0.62;2.77;2.20;;;22.10;25.00;;;;;;2259832;61;20358;-60
2023/02/24 07:20:10;0.00;0.00;0.62;0.00;0.00;0.62;3.37;2.67;;;22.10;25.00;;;;;;2256370;61;20354;-64
2023/02/24 07:22:37;0.00;0.00;0.62;0.00;0.00;0.62;5.00;2.73;;;22.10;25.00;;;;;;2260647;61;20476;-62
2023/02/24 07:25:32;0.00;0.00;0.62;0.00;0.00;0.62;3.23;2.17;;;22.10;25.00;;;;;;2253986;61;20817;-61
2023/02/24 07:28:17;0.00;0.00;0.62;0.00;0.00;0.62;4.57;3.20;;;22.00;24.90;;;;;;2257455;61;20877;-61
2023/02/24 07:31:07;0.00;0.00;0.62;0.00;0.00;0.62;4.03;3.20;;;22.00;24.90;;;;;;2260296;61;20369;-66
2023/02/24 07:33:54;0.00;0.00;0.62;0.00;0.00;0.62;3.73;2.43;;;22.00;25.00;;;;;;2260653;61;20424;-64
2023/02/24 07:36:47;0.00;0.00;0.62;0.00;0.00;0.62;3.00;2.40;;;22.00;24.90;;;;;;2260485;61;20405;-62
2023/02/24 07:39:33;0.00;0.00;0.62;0.00;0.00;0.62;5.63;3.07;;;22.00;24.90;;;;;;2256364;61;20894;-60
2023/02/24 07:42:20;0.00;0.00;0.62;0.00;0.00;0.62;5.50;3.33;;;22.00;24.90;;;;;;2260623;61;20452;-59
2023/02/24 07:45:12;0.00;0.00;0.62;0.00;0.00;0.62;3.20;2.30;;;22.00;25.00;;;;;;2260415;61;20365;-60
2023/02/24 07:47:57;0.00;0.00;0.62;0.00;0.00;0.62;4.00;3.00;;;22.00;24.90;;;;;;2259998;61;20512;-60
2023/02/24 07:50:42;0.00;0.00;0.62;0.00;0.00;0.62;4.97;3.33;;;22.00;24.90;;;;;;2260014;61;20986;-65
2023/02/24 07:53:27;0.00;0.00;0.62;0.00;0.00;0.62;3.83;3.27;;;22.00;24.90;;;;;;2257155;61;20395;-64
2023/02/24 07:56:16;0.00;0.00;0.62;0.00;0.00;0.62;4.00;3.20;;;22.00;24.90;;;;;;2260676;61;20419;-65
2023/02/24 07:59:09;0.00;0.00;0.62;0.00;0.00;0.62;4.20;3.33;;;21.90;24.90;;;;;;2260186;61;20377;-64
2023/02/24 08:01:55;0.00;0.00;0.62;0.00;0.00;0.62;3.67;2.47;;;21.90;24.90;;;;;;2256756;61;20412;-64
2023/02/24 08:04:46;0.00;0.00;0.62;0.00;0.00;0.62;4.50;3.00;;;21.90;24.90;;;;;;2260428;61;20356;-65
2023/02/24 08:07:33;0.00;0.00;0.62;0.00;0.00;0.62;3.80;3.00;;;21.90;24.80;;;;;;2260452;61;20357;-64
2023/02/24 08:10:25;0.00;0.00;0.62;0.00;0.00;0.62;6.53;2.80;;;21.90;24.80;;;;;;2259710;61;20368;-65
2023/02/24 08:13:10;0.00;0.00;0.62;0.00;0.00;0.62;3.57;2.70;;;21.90;24.80;;;;;;2257167;61;20396;-64
2023/02/24 08:15:56;0.00;0.00;0.62;0.00;0.00;0.62;4.47;3.07;;;21.90;25.30;;;;;;2259949;61;20613;-64
2023/02/24 08:18:47;0.00;0.00;0.62;0.00;0.00;0.62;5.53;3.30;;;21.90;24.80;;;;;;2260374;61;20365;-66
2023/02/24 08:21:40;0.00;0.00;0.62;0.00;0.00;0.62;4.10;2.80;;;21.90;24.80;;;;;;2260441;61;20916;-64
2023/02/24 08:24:28;0.00;0.00;0.62;0.00;0.00;0.62;3.67;2.63;;;21.90;24.80;;;;;;2259451;61;20357;-63
2023/02/24 08:27:13;0.00;0.00;0.62;0.00;0.00;0.62;3.70;2.90;;;21.90;24.80;;;;;;2257349;61;20360;-66
2023/02/24 08:30:01;0.00;0.00;0.62;0.00;0.00;0.62;3.53;2.30;;;21.90;24.80;;;;;;2260392;61;20419;-64
2023/02/24 08:32:55;0.00;0.00;0.62;0.00;0.00;0.62;4.77;2.87;;;21.90;24.80;;;;;;2260107;61;20857;-64
2023/02/24 08:35:43;0.00;0.00;0.62;0.00;0.00;0.62;4.37;3.00;;;21.90;24.80;;;;;;2260641;61;20377;-64
2023/02/24 08:38:38;0.00;0.00;0.62;0.00;0.00;0.62;4.33;2.20;;;21.90;24.80;;;;;;2256588;61;20464;-63
2023/02/24 08:41:43;0.00;0.00;0.62;0.00;0.00;0.62;3.97;2.50;;;21.90;24.80;;;;;;2260433;61;20392;-64
2023/02/24 08:44:27;0.00;0.00;0.62;0.00;0.00;0.62;4.47;2.97;;;21.90;24.80;;;;;;2260427;61;20391;-67
2023/02/24 08:47:12;0.00;0.00;0.62;0.00;0.00;0.62;3.33;2.43;;;21.90;24.80;;;;;;2256479;61;20376;-65
2023/02/24 08:49:59;0.00;0.00;0.62;0.00;0.00;0.62;3.67;3.07;;;21.90;24.80;;;;;;2260074;61;20427;-64
2023/02/24 08:52:43;0.00;0.00;0.62;0.00;0.00;0.62;3.70;3.10;;;21.90;24.80;;;;;;2259829;61;20388;-64
2023/02/24 08:55:31;0.00;0.00;0.62;0.00;0.00;0.62;5.50;3.30;;;21.80;24.70;;;;;;2260450;61;20361;-65
2023/02/24 08:58:18;0.00;0.00;0.62;0.00;0.00;0.62;5.13;3.67;;;21.80;24.70;;;;;;2260424;61;20392;-67
2023/02/24 09:01:04;0.00;0.00;0.62;0.00;0.00;0.62;4.00;2.90;;;21.80;24.70;;;;;;2259180;61;20356;-64
2023/02/24 09:03:51;0.00;0.00;0.62;0.00;0.00;0.62;4.67;3.23;;;21.80;24.70;;;;;;2260365;61;20409;-64
2023/02/24 09:06:45;0.00;0.00;0.62;0.00;0.00;0.62;4.83;3.30;;;21.80;24.70;;;;;;2260279;61;20384;-64
2023/02/24 09:09:29;0.00;0.00;0.62;0.00;0.00;0.62;3.20;2.63;;;21.80;24.70;;;;;;2259286;61;20369;-64
2023/02/24 09:12:24;0.00;0.00;0.62;0.00;0.00;0.62;5.37;3.83;;;21.80;24.70;;;;;;2260146;61;20439;-65
2023/02/24 09:15:14;0.00;0.00;0.62;0.00;0.00;0.62;3.97;3.20;;;21.80;24.70;;;;;;2259451;61;20492;-65
2023/02/24 09:18:06;0.00;0.00;0.62;0.00;0.00;0.62;5.30;2.97;;;21.80;24.70;;;;;;2260315;61;20419;-65
2023/02/24 09:21:14;0.00;0.00;0.62;0.00;0.00;0.62;4.63;2.90;;;21.80;24.70;;;;;;2259862;61;20376;-65
2023/02/24 09:24:05;0.00;0.00;0.62;0.00;0.00;0.62;5.50;3.07;;;21.80;24.70;;;;;;2259616;61;20421;-65
2023/02/24 09:26:57;0.00;0.00;0.62;0.00;0.00;0.62;3.90;2.90;;;21.80;24.70;;;;;;2260223;61;20373;-65
2023/02/24 09:29:48;0.00;0.00;0.62;0.00;0.00;0.62;3.37;2.70;;;21.80;24.70;;;;;;2256601;61;20411;-65
2023/02/24 09:32:34;0.00;0.00;0.62;0.00;0.00;0.62;4.43;3.60;;;21.70;24.60;;;;;;2259862;61;20471;-65
2023/02/24 09:35:24;0.00;0.00;0.62;0.00;0.00;0.62;3.80;3.00;;;21.70;24.60;;;;;;2259863;61;20819;-65
2023/02/24 09:38:09;0.00;0.00;0.62;0.00;0.00;0.62;3.43;2.50;;;21.70;25.10;;;;;;2259224;61;20357;-65
2023/02/24 09:41:05;0.00;0.00;0.62;0.00;0.00;0.62;5.57;3.10;;;21.70;24.60;;;;;;2260174;61;20373;-65
2023/02/24 09:43:58;0.00;0.00;0.62;0.00;0.00;0.62;3.10;2.63;;;21.70;24.60;;;;;;2259937;61;20481;-66
2023/02/24 09:46:53;0.00;0.00;0.62;0.00;0.00;0.62;3.80;2.60;;;21.70;24.60;;;;;;2259567;61;20361;-66
2023/02/24 09:49:54;0.00;0.00;0.62;0.00;0.00;0.62;4.40;3.13;;;21.70;24.60;;;;;;2259819;61;20360;-66
2023/02/24 09:52:40;0.00;0.00;0.62;0.00;0.00;0.62;3.70;2.93;;;21.70;24.60;;;;;;2259387;61;20383;-66
2023/02/24 09:55:37;0.00;0.00;0.62;0.00;0.00;0.62;3.93;2.60;;;21.70;24.60;;;;;;2260065;61;20361;-65
2023/02/24 09:58:30;0.00;0.00;0.62;0.00;0.00;0.62;3.00;2.70;;;21.70;24.60;;;;;;2260074;61;20414;-66
2023/02/24 10:01:44;0.00;0.00;0.62;0.00;0.00;0.62;4.37;2.90;;;21.70;24.60;;;;;;2259501;61;20411;-64
2023/02/24 10:04:52;0.00;0.00;0.62;0.00;0.00;0.62;4.20;3.10;;;21.70;24.60;;;;;;2260668;61;20391;-65
2023/02/24 10:07:42;0.00;0.00;0.62;0.00;0.00;0.62;3.37;2.40;;;21.70;24.60;;;;;;2260292;61;20372;-65
2023/02/24 10:10:34;0.00;0.00;0.62;0.00;0.00;0.62;3.40;2.27;;;21.70;24.60;;;;;;2260678;61;20476;-65
2023/02/24 10:13:31;0.00;0.00;0.62;0.00;0.00;0.62;4.00;2.77;;;21.70;24.60;;;;;;2260642;61;20373;-65
2023/02/24 10:16:22;0.00;0.00;0.62;0.00;0.00;0.62;3.40;2.40;;;21.70;24.60;;;;;;2260283;61;20368;-64
2023/02/24 10:19:23;0.00;0.00;0.62;0.00;0.00;0.62;3.20;2.37;;;21.70;24.60;;;;;;2260317;61;20400;-64
2023/02/24 10:22:27;0.00;0.00;0.62;0.00;0.00;0.62;3.73;2.60;;;21.70;24.50;;;;;;2260067;61;20388;-65
2023/02/24 10:25:34;0.00;0.00;0.62;0.00;0.00;0.62;3.47;2.43;;;21.60;24.50;;;;;;2260967;61;20399;-65
2023/02/24 10:28:35;0.00;0.00;0.62;0.00;0.00;0.62;3.63;2.83;;;21.60;24.50;;;;;;2261084;61;20368;-65
2023/02/24 10:31:34;0.00;0.00;0.62;0.00;0.00;0.62;4.27;2.73;;;21.70;24.50;;;;;;2260410;61;20393;-65
2023/02/24 10:34:25;0.00;0.00;0.62;0.00;0.00;0.62;3.33;2.57;;;21.60;24.50;;;;;;2260815;61;20360;-65
2023/02/24 10:37:13;0.00;0.00;0.62;0.00;0.00;0.62;4.10;2.63;;;21.60;24.40;;;;;;2260101;61;20897;-65
2023/02/24 10:40:08;0.00;0.00;0.62;0.00;0.00;0.62;3.00;2.30;;;21.60;24.50;;;;;;2260165;61;20408;-65